Time;durP1;ratioP1;P1;durP2;ratioP2;P2;SDS_P1;SDS_P2;PMS_P1;PMS_P2;Temp;Humidity;BMP_temperature;BMP_pressure;BME280_temperature;BME280_humidity;BME280_pressure;Samples;Min_cycle;Max_cycle;Signal;HPM_P1;HPM_P2
2023/08/22 00:00:06;;;;;;;;;;;29.90;91.20;29.90;99761.00;;;;348430;27;90857;-89
2023/08/22 00:00:18;;;;;;;;;;;29.90;90.90;29.90;99757.00;;;;346312;28;83382;-89
2023/08/22 00:00:31;;;;;;;;;;;29.90;90.90;29.80;99758.00;;;;347185;28;91381;-89
2023/08/22 00:00:43;;;;;;;;;;;29.90;91.10;29.80;99756.00;;;;348976;27;83413;-89
2023/08/22 00:00:54;;;;;;;;;;;29.90;91.20;29.80;99762.00;;;;348513;27;91855;-89
2023/08/22 00:01:06;;;;;;;;;;;29.90;91.10;29.80;99757.00;;;;348992;27;83329;-88
2023/08/22 00:01:18;;;;;;;;;;;29.90;91.20;29.70;99763.00;;;;344345;28;91580;-89
2023/08/22 00:01:30;;;;;;;;;;;29.90;91.30;29.70;99758.00;;;;344889;28;83452;-89
2023/08/22 00:01:42;;;;;;;;;;;29.80;91.30;29.70;99759.00;;;;347175;28;92571;-89
2023/08/22 00:01:54;;;;;;;;;;;29.90;91.40;29.70;99763.00;;;;346241;28;82468;-89
2023/08/22 00:02:06;;;;;;;;;;;29.90;91.40;29.70;99759.00;;;;345720;28;92287;-90
2023/08/22 00:02:18;;;;;;;;;;;29.90;91.40;29.70;99759.00;;;;347646;28;83325;-89
2023/08/22 00:02:29;;;;;;;;;;;29.80;91.20;29.80;99752.00;;;;342964;28;92452;-89
2023/08/22 00:02:41;;;;;;;;;;;29.80;91.10;29.80;99763.00;;;;346254;28;83492;-89
2023/08/22 00:02:54;;;;;;;;;;;29.80;91.10;29.80;99763.00;;;;347308;28;90287;-89
2023/08/22 00:03:06;;;;;;;;;;;29.80;91.20;29.80;99762.00;;;;347618;28;83404;-89
2023/08/22 00:03:18;;;;;;;;;;;29.80;91.10;29.70;99753.00;;;;345862;28;90392;-89
2023/08/22 00:03:30;;;;;;;;;;;29.80;91.10;29.70;99757.00;;;;343527;28;82582;-89
2023/08/22 00:03:42;;;;;;;;;;;29.80;91.30;29.70;99755.00;;;;347220;28;91537;-89
2023/08/22 00:03:56;;;;;;;;;;;29.80;91.30;29.70;99759.00;;;;347627;28;82531;-89
2023/08/22 00:04:09;;;;;;;;;;;29.80;91.30;29.70;99759.00;;;;345801;28;92388;-89
2023/08/22 00:04:21;;;;;;;;;;;29.80;91.10;29.70;99759.00;;;;346497;28;83370;-89
2023/08/22 00:04:33;;;;;;;;;;;29.80;91.00;29.70;99756.00;;;;347287;28;90806;-89
2023/08/22 00:04:44;;;;;;;;;;;29.80;91.10;29.70;99760.00;;;;347655;27;83415;-88
2023/08/22 00:04:56;;;;;;;;;;;29.80;91.40;29.70;99758.00;;;;347962;27;91544;-89
2023/08/22 00:05:08;;;;;;;;;;;29.80;91.40;29.70;99755.00;;;;347738;28;82338;-89
2023/08/22 00:05:21;;;;;;;;;;;29.80;91.40;29.70;99757.00;;;;345781;28;89027;-89
2023/08/22 00:05:33;;;;;;;;;;;29.80;91.40;29.60;99760.00;;;;347450;28;82579;-89
2023/08/22 00:05:46;;;;;;;;;;;29.80;91.40;29.60;99759.00;;;;345656;28;90601;-89
2023/08/22 00:05:58;;;;;;;;;;;29.80;91.40;29.70;99762.00;;;;345942;28;83540;-89
2023/08/22 00:06:10;;;;;;;;;;;29.80;91.30;29.80;99758.00;;;;347106;28;93249;-89
2023/08/22 00:06:23;;;;;;;;;;;29.80;91.20;29.80;99757.00;;;;346284;28;83385;-89
2023/08/22 00:06:35;;;;;;;;;;;29.80;91.20;29.70;99757.00;;;;347174;28;91691;-89
2023/08/22 00:06:47;;;;;;;;;;;29.80;91.40;29.70;99749.00;;;;346216;28;83521;-89
2023/08/22 00:06:59;;;;;;;;;;;29.80;91.40;29.70;99764.00;;;;345580;28;90478;-89
2023/08/22 00:07:10;;;;;;;;;;;29.80;91.30;29.70;99762.00;;;;347531;28;83450;-89
2023/08/22 00:07:22;;;;;;;;;;;29.80;91.30;29.70;99762.00;;;;345729;28;91476;-89
2023/08/22 00:07:34;;;;;;;;;;;29.80;91.30;29.70;99749.00;;;;347719;28;82377;-89
2023/08/22 00:07:46;;;;;;;;;;;29.80;91.20;29.80;99756.00;;;;345846;28;90320;-89
2023/08/22 00:07:59;;;;;;;;;;;29.80;91.20;29.70;99748.00;;;;344866;28;82471;-89
2023/08/22 00:08:11;;;;;;;;;;;29.80;91.40;29.70;99751.00;;;;347118;28;92354;-89
2023/08/22 00:08:23;;;;;;;;;;;29.80;91.60;29.70;99757.00;;;;346230;28;83374;-89
2023/08/22 00:08:35;;;;;;;;;;;29.80;91.40;29.70;99754.00;;;;343034;28;90378;-89
2023/08/22 00:08:47;;;;;;;;;;;29.80;91.40;29.60;99757.00;;;;344823;28;83448;-89
2023/08/22 00:08:59;;;;;;;;;;;29.80;91.50;29.70;99759.00;;;;345849;28;91643;-89
2023/08/22 00:09:11;;;;;;;;;;;29.80;91.30;29.70;99753.00;;;;346203;28;82490;-89
2023/08/22 00:09:24;;;;;;;;;;;29.80;91.30;29.70;99760.00;;;;347134;28;90739;-89
2023/08/22 00:09:35;;;;;;;;;;;29.80;91.30;29.70;99762.00;;;;344890;28;83790;-89
2023/08/22 00:09:47;;;;;;;;;;;29.80;91.40;29.70;99757.00;;;;347169;28;91468;-89
2023/08/22 00:09:59;;;;;;;;;;;29.80;91.30;29.60;99750.00;;;;346167;28;83468;-89
2023/08/22 00:10:11;;;;;;;;;;;29.70;91.50;29.60;99757.00;;;;347141;28;91285;-89
2023/08/22 00:10:23;;;;;;;;;;;29.80;91.60;29.60;99755.00;;;;347639;28;83416;-89
2023/08/22 00:10:34;;;;;;;;;;;29.80;91.50;29.60;99754.00;;;;345758;28;91413;-89
2023/08/22 00:10:46;;;;;;;;;;;29.70;91.60;29.60;99755.00;;;;349064;27;83495;-89
2023/08/22 00:10:59;;;;;;;;;;;29.70;91.40;29.70;99764.00;;;;347248;28;91397;-89
2023/08/22 00:11:11;;;;;;;;;;;29.70;91.40;29.70;99759.00;;;;344833;28;83467;-89
2023/08/22 00:11:22;;;;;;;;;;;29.70;91.40;29.70;99756.00;;;;348530;27;91139;-89
2023/08/22 00:11:34;;;;;;;;;;;29.70;91.40;29.70;99757.00;;;;347625;28;83462;-89
2023/08/22 00:11:46;;;;;;;;;;;29.80;91.40;29.70;99752.00;;;;348572;27;91332;-89
2023/08/22 00:11:58;;;;;;;;;;;29.70;91.30;29.70;99762.00;;;;346129;28;83363;-89
2023/08/22 00:12:10;;;;;;;;;;;29.70;91.30;29.70;99759.00;;;;345735;28;92317;-88
2023/08/22 00:12:22;;;;;;;;;;;29.70;91.40;29.80;99765.00;;;;346177;28;83517;-89
2023/08/22 00:12:34;;;;;;;;;;;29.70;91.40;29.80;99763.00;;;;344369;28;90995;-89
2023/08/22 00:12:45;;;;;;;;;;;29.70;91.40;29.70;99761.00;;;;344875;28;83327;-89
2023/08/22 00:12:57;;;;;;;;;;;29.70;91.40;29.60;99759.00;;;;345818;28;91750;-89
2023/08/22 00:13:09;;;;;;;;;;;29.80;91.60;29.60;99768.00;;;;344848;28;83458;-89
2023/08/22 00:13:21;;;;;;;;;;;29.70;91.70;29.60;99761.00;;;;348412;27;90146;-89
2023/08/22 00:13:33;;;;;;;;;;;29.70;91.60;29.60;99765.00;;;;348952;27;82447;-89
2023/08/22 00:13:45;;;;;;;;;;;29.70;91.50;29.60;99763.00;;;;347125;28;92263;-89
2023/08/22 00:13:57;;;;;;;;;;;29.70;91.50;29.60;99756.00;;;;348994;27;83355;-89
2023/08/22 00:14:09;;;;;;;;;;;29.70;91.60;29.60;99762.00;;;;349914;27;91206;-90
2023/08/22 00:14:21;;;;;;;;;;;29.70;91.70;29.60;99758.00;;;;346259;28;83421;-89
2023/08/22 00:14:32;;;;;;;;;;;29.70;91.50;29.60;99766.00;;;;345833;28;91796;-90
2023/08/22 00:14:44;;;;;;;;;;;29.70;91.40;29.60;99754.00;;;;347616;28;82606;-89
2023/08/22 00:14:56;;;;;;;;;;;29.70;91.40;29.70;99759.00;;;;347246;28;91846;-90
2023/08/22 00:15:10;;;;;;;;;;;29.70;91.50;29.80;99757.00;;;;347564;28;82450;-89
2023/08/22 00:15:22;;;;;;;;;;;29.70;91.50;29.80;99756.00;;;;345496;28;90683;-89
2023/08/22 00:15:34;;;;;;;;;;;29.70;91.60;29.80;99759.00;;;;346283;28;82359;-89
2023/08/22 00:15:46;;;;;;;;;;;29.70;91.60;29.80;99755.00;;;;344454;28;90498;-89
2023/08/22 00:15:59;;;;;;;;;;;29.70;91.80;29.80;99760.00;;;;347623;28;83389;-89
2023/08/22 00:16:11;;;;;;;;;;;29.70;91.60;29.70;99765.00;;;;347045;28;92566;-89
2023/08/22 00:16:23;;;;;;;;;;;29.70;91.50;29.70;99761.00;;;;347612;28;83464;-89
2023/08/22 00:16:35;;;;;;;;;;;29.70;91.60;29.60;99760.00;;;;344410;28;91359;-89
2023/08/22 00:16:47;;;;;;;;;;;29.70;91.70;29.60;99762.00;;;;347603;28;83466;-89
2023/08/22 00:16:59;;;;;;;;;;;29.70;91.80;29.50;99766.00;;;;347051;28;89776;-89
2023/08/22 00:17:11;;;;;;;;;;;29.70;91.80;29.60;99763.00;;;;347595;28;83398;-89
2023/08/22 00:17:24;;;;;;;;;;;29.70;91.80;29.60;99768.00;;;;348517;27;90608;-90
2023/08/22 00:17:36;;;;;;;;;;;29.70;91.60;29.70;99755.00;;;;347648;28;83384;-89
2023/08/22 00:17:50;;;;;;;;;;;29.70;91.60;29.70;99759.00;;;;347076;28;90649;-89
2023/08/22 00:18:02;;;;;;;;;;;29.70;91.60;29.70;99759.00;;;;348695;27;83543;-89
2023/08/22 00:18:14;;;;;;;;;;;29.70;91.60;29.60;99762.00;;;;348359;27;90689;-89
2023/08/22 00:18:27;;;;;;;;;;;29.70;92.00;29.60;99759.00;;;;347694;28;83441;-89
2023/08/22 00:18:39;;;;;;;;;;;29.70;91.90;29.50;99770.00;;;;347135;28;90476;-89
2023/08/22 00:18:50;;;;;;;;;;;29.70;91.90;29.60;99763.00;;;;347596;28;83299;-89
2023/08/22 00:19:03;;;;;;;;;;;29.70;91.90;29.60;99762.00;;;;345783;28;90477;-89
2023/08/22 00:21:34;;;;;;;;;;;29.70;91.80;29.60;99765.00;;;;298736;22;89876;-85
2023/08/22 00:21:46;;;;;;;;;;;29.70;91.90;29.70;99767.00;;;;339676;28;83484;-88
2023/08/22 00:21:57;;;;;;;;;;;29.60;91.70;29.70;99765.00;;;;336208;28;91972;-89
2023/08/22 00:22:11;;;;;;;;;;;29.60;91.70;29.70;99763.00;;;;336570;28;83541;-89
2023/08/22 00:22:23;;;;;;;;;;;29.60;91.90;29.60;99766.00;;;;337708;28;90745;-89
2023/08/22 00:22:35;;;;;;;;;;;29.60;91.70;29.60;99762.00;;;;336779;28;83590;-89
2023/08/22 00:22:47;;;;;;;;;;;29.60;91.70;29.60;99766.00;;;;337635;28;91864;-89
2023/08/22 00:22:59;;;;;;;;;;;29.60;91.70;29.60;99766.00;;;;337755;28;82525;-89
2023/08/22 00:23:11;;;;;;;;;;;29.60;91.70;29.60;99773.00;;;;338492;28;91191;-90
2023/08/22 00:23:23;;;;;;;;;;;29.60;91.70;29.60;99764.00;;;;337420;28;84482;-89
2023/08/22 00:23:35;;;;;;;;;;;29.60;91.80;29.60;99766.00;;;;336222;28;91449;-89
2023/08/22 00:23:46;;;;;;;;;;;29.60;92.10;29.60;99768.00;;;;338062;28;82297;-90
2023/08/22 00:23:58;;;;;;;;;;;29.60;91.80;29.50;99771.00;;;;338873;28;91584;-89
2023/08/22 00:24:10;;;;;;;;;;;29.60;91.80;29.50;99761.00;;;;339449;28;82508;-89
2023/08/22 00:24:23;;;;;;;;;;;29.60;91.90;29.50;99766.00;;;;338961;28;90821;-89
2023/08/22 00:24:35;;;;;;;;;;;29.60;91.90;29.50;99764.00;;;;338195;28;82508;-89
2023/08/22 00:24:48;;;;;;;;;;;29.60;91.80;29.60;99763.00;;;;337742;28;88770;-89
2023/08/22 00:25:00;;;;;;;;;;;29.60;91.70;29.60;99765.00;;;;339364;28;83514;-89
2023/08/22 00:25:11;;;;;;;;;;;29.60;91.90;29.60;99765.00;;;;338869;28;91368;-90
2023/08/22 00:25:23;;;;;;;;;;;29.60;91.90;29.60;99769.00;;;;338101;28;82500;-89
2023/08/22 00:25:35;;;;;;;;;;;29.60;91.80;29.60;99766.00;;;;337636;28;92574;-89
2023/08/22 00:25:47;;;;;;;;;;;29.60;91.70;29.60;99768.00;;;;336706;28;83447;-89
2023/08/22 00:25:59;;;;;;;;;;;29.60;91.80;29.70;99763.00;;;;338964;28;91335;-89
2023/08/22 00:26:11;;;;;;;;;;;29.60;91.90;29.80;99765.00;;;;339375;28;83356;-90
2023/08/22 00:26:23;;;;;;;;;;;29.60;92.00;29.80;99770.00;;;;336276;28;91124;-89
2023/08/22 00:26:35;;;;;;;;;;;29.60;92.00;29.80;99766.00;;;;338133;28;82513;-89
2023/08/22 00:26:47;;;;;;;;;;;29.60;92.00;29.70;99765.00;;;;336371;28;90550;-89
2023/08/22 00:26:59;;;;;;;;;;;29.60;91.90;29.70;99768.00;;;;335519;29;82556;-89
2023/08/22 00:27:12;;;;;;;;;;;29.60;91.80;29.60;99765.00;;;;335040;28;90531;-89
2023/08/22 00:27:24;;;;;;;;;;;29.60;92.00;29.50;99768.00;;;;339350;28;83412;-89
2023/08/22 00:27:36;;;;;;;;;;;29.60;92.00;29.40;99768.00;;;;337640;28;91362;-88
2023/08/22 00:27:48;;;;;;;;;;;29.60;92.30;29.40;99759.00;;;;338018;28;83368;-89
2023/08/22 00:28:00;;;;;;;;;;;29.60;92.20;29.40;99769.00;;;;339038;28;91694;-90
2023/08/22 00:28:14;;;;;;;;;;;29.60;92.20;29.50;99768.00;;;;338236;28;83318;-89
2023/08/22 00:28:25;;;;;;;;;;;29.60;92.10;29.50;99766.00;;;;337652;28;90865;-90
2023/08/22 00:28:37;;;;;;;;;;;29.60;92.00;29.50;99769.00;;;;338084;28;83437;-89
2023/08/22 00:28:49;;;;;;;;;;;29.60;92.00;29.40;99771.00;;;;336297;28;90051;-89
2023/08/22 00:29:01;;;;;;;;;;;29.60;92.20;29.40;99765.00;;;;337947;28;82528;-89
2023/08/22 00:29:13;;;;;;;;;;;29.60;92.20;29.40;99763.00;;;;337561;28;91940;-89
2023/08/22 00:29:25;;;;;;;;;;;29.60;92.10;29.40;99766.00;;;;336669;28;83594;-89
2023/08/22 00:29:37;;;;;;;;;;;29.50;92.10;29.40;99768.00;;;;338908;28;90020;-89
2023/08/22 00:29:49;;;;;;;;;;;29.50;92.20;29.40;99764.00;;;;338174;28;84183;-89
2023/08/22 00:30:00;;;;;;;;;;;29.50;92.10;29.40;99759.00;;;;335077;29;89847;-89
2023/08/22 00:30:12;;;;;;;;;;;29.50;92.00;29.40;99763.00;;;;339259;28;83434;-89
2023/08/22 00:30:24;;;;;;;;;;;29.50;92.00;29.40;99763.00;;;;338904;28;91301;-89
2023/08/22 00:30:36;;;;;;;;;;;29.50;92.00;29.40;99762.00;;;;335422;29;82550;-89
2023/08/22 00:30:48;;;;;;;;;;;29.50;91.90;29.50;99761.00;;;;335003;28;91602;-89
2023/08/22 00:31:00;;;;;;;;;;;29.50;91.80;29.50;99754.00;;;;335507;29;83378;-89
2023/08/22 00:31:11;;;;;;;;;;;29.50;91.90;29.40;99760.00;;;;334997;29;90418;-89
2023/08/22 00:31:23;;;;;;;;;;;29.50;91.90;29.40;99766.00;;;;336804;28;83209;-89
2023/08/22 00:31:35;;;;;;;;;;;29.50;92.20;29.50;99764.00;;;;339029;28;91174;-90
2023/08/22 00:31:47;;;;;;;;;;;29.50;91.90;29.40;99762.00;;;;337919;28;83860;-89
2023/08/22 00:31:59;;;;;;;;;;;29.50;91.90;29.40;99765.00;;;;337702;28;91293;-89
2023/08/22 00:32:11;;;;;;;;;;;29.50;92.00;29.40;99767.00;;;;338494;28;83833;-89
2023/08/22 00:32:23;;;;;;;;;;;29.50;92.00;29.40;99760.00;;;;339012;28;90863;-89
2023/08/22 00:32:35;;;;;;;;;;;29.50;92.00;29.40;99759.00;;;;340738;28;83477;-89
2023/08/22 00:32:48;;;;;;;;;;;29.50;92.10;29.40;99752.00;;;;340222;28;91565;-89
2023/08/22 00:32:59;;;;;;;;;;;29.50;92.10;29.40;99760.00;;;;340761;28;83197;-89
2023/08/22 00:33:11;;;;;;;;;;;29.50;92.00;29.40;99765.00;;;;338879;28;91362;-89
2023/08/22 00:33:23;;;;;;;;;;;29.50;92.20;29.40;99759.00;;;;337955;28;83484;-89
2023/08/22 00:33:35;;;;;;;;;;;29.50;92.00;29.40;99760.00;;;;339000;28;92077;-90
2023/08/22 00:33:47;;;;;;;;;;;29.50;92.20;29.40;99753.00;;;;339337;28;85366;-89
2023/08/22 00:34:01;;;;;;;;;;;29.50;92.00;29.40;99756.00;;;;338102;28;91410;-89
2023/08/22 00:34:13;;;;;;;;;;;29.50;92.10;29.30;99762.00;;;;338067;28;83458;-89
2023/08/22 00:34:25;;;;;;;;;;;29.40;92.30;29.20;99757.00;;;;336729;28;90460;-89
2023/08/22 00:34:37;;;;;;;;;;;29.40;92.30;29.30;99761.00;;;;339440;28;83332;-89
2023/08/22 00:34:48;;;;;;;;;;;29.40;92.30;29.30;99761.00;;;;338994;28;90315;-89
2023/08/22 00:35:00;;;;;;;;;;;29.40;92.30;29.30;99757.00;;;;338025;28;83450;-89
2023/08/22 00:35:13;;;;;;;;;;;29.40;92.30;29.30;99750.00;;;;338945;28;91356;-89
2023/08/22 00:35:28;;;;;;;;;;;29.40;92.30;29.30;99759.00;;;;339367;28;83429;-89
2023/08/22 00:35:40;;;;;;;;;;;29.40;92.20;29.30;99754.00;;;;337677;28;92315;-89
2023/08/22 00:35:52;;;;;;;;;;;29.40;92.10;29.40;99756.00;;;;337865;28;83561;-89
2023/08/22 00:36:04;;;;;;;;;;;29.40;92.10;29.40;99757.00;;;;337531;28;91778;-89
2023/08/22 00:36:16;;;;;;;;;;;29.50;92.20;29.40;99754.00;;;;338212;28;82475;-89
2023/08/22 00:36:30;;;;;;;;;;;29.40;92.20;29.50;99754.00;;;;338924;28;91489;-89
2023/08/22 00:36:42;;;;;;;;;;;29.40;92.20;29.40;99758.00;;;;340811;28;82462;-89
2023/08/22 00:36:54;;;;;;;;;;;29.40;92.30;29.30;99756.00;;;;337724;28;91339;-89
2023/08/22 00:37:06;;;;;;;;;;;29.40;92.30;29.30;99757.00;;;;336628;28;83400;-89
2023/08/22 00:37:18;;;;;;;;;;;29.40;92.40;29.30;99758.00;;;;337614;28;91615;-89
2023/08/22 00:37:30;;;;;;;;;;;29.40;92.30;29.30;99757.00;;;;338102;28;82495;-89
2023/08/22 00:37:42;;;;;;;;;;;29.40;92.20;29.20;99756.00;;;;339363;28;91466;-89
2023/08/22 00:37:54;;;;;;;;;;;29.40;92.40;29.20;99758.00;;;;339109;28;82269;-89
2023/08/22 00:38:06;;;;;;;;;;;29.40;92.40;29.30;99758.00;;;;337977;28;90431;-90
2023/08/22 00:38:18;;;;;;;;;;;29.40;92.30;29.30;99757.00;;;;340644;28;83496;-89
2023/08/22 00:38:30;;;;;;;;;;;29.40;92.20;29.40;99748.00;;;;337185;28;90960;-89
2023/08/22 00:38:42;;;;;;;;;;;29.40;92.20;29.40;99753.00;;;;338187;28;82531;-89
2023/08/22 00:38:53;;;;;;;;;;;29.40;92.20;29.40;99756.00;;;;336166;28;90575;-89
2023/08/22 00:39:05;;;;;;;;;;;29.40;92.20;29.40;99758.00;;;;337986;28;83415;-89
2023/08/22 00:39:19;;;;;;;;;;;29.40;92.30;29.30;99752.00;;;;340188;28;91668;-89
2023/08/22 00:39:33;;;;;;;;;;;29.40;92.20;29.20;99760.00;;;;338146;28;82416;-89
2023/08/22 00:39:45;;;;;;;;;;;29.40;92.40;29.20;99756.00;;;;338847;28;92506;-89
2023/08/22 00:39:56;;;;;;;;;;;29.30;92.40;29.20;99753.00;;;;338077;28;82497;-89
2023/08/22 00:40:09;;;;;;;;;;;29.30;92.50;29.20;99754.00;;;;340342;28;90347;-89
2023/08/22 00:40:20;;;;;;;;;;;29.30;92.50;29.20;99759.00;;;;338113;28;82489;-89
2023/08/22 00:40:32;;;;;;;;;;;29.30;92.50;29.20;99752.00;;;;334389;29;91434;-89
2023/08/22 00:40:44;;;;;;;;;;;29.30;92.40;29.20;99756.00;;;;336737;28;83393;-89
2023/08/22 00:40:56;;;;;;;;;;;29.30;92.20;29.20;99754.00;;;;336296;28;88997;-89
2023/08/22 00:41:08;;;;;;;;;;;29.30;92.20;29.20;99753.00;;;;337638;28;83605;-89
2023/08/22 00:41:19;;;;;;;;;;;29.30;92.20;29.20;99759.00;;;;336346;28;90291;-89
2023/08/22 00:41:32;;;;;;;;;;;29.30;92.10;29.30;99754.00;;;;336606;28;83952;-89
2023/08/22 00:41:44;;;;;;;;;;;29.30;92.10;29.30;99762.00;;;;335190;28;90073;-89
2023/08/22 00:41:56;;;;;;;;;;;29.30;92.10;29.30;99749.00;;;;335992;28;83529;-89
2023/08/22 00:42:07;;;;;;;;;;;29.30;92.10;29.30;99753.00;;;;338841;28;89575;-89
2023/08/22 00:42:19;;;;;;;;;;;29.30;92.10;29.30;99752.00;;;;336678;28;82552;-89
2023/08/22 00:42:31;;;;;;;;;;;29.30;92.10;29.30;99751.00;;;;337598;28;91161;-89
2023/08/22 00:42:43;;;;;;;;;;;29.30;92.10;29.30;99757.00;;;;339158;28;83558;-89
2023/08/22 00:42:55;;;;;;;;;;;29.30;92.10;29.30;99755.00;;;;336375;28;91497;-89
2023/08/22 00:43:07;;;;;;;;;;;29.30;92.10;29.20;99755.00;;;;338031;28;83331;-89
2023/08/22 00:43:18;;;;;;;;;;;29.30;92.50;29.20;99751.00;;;;336341;28;89121;-89
2023/08/22 00:43:30;;;;;;;;;;;29.30;92.60;29.20;99757.00;;;;336084;28;83491;-89
2023/08/22 00:43:42;;;;;;;;;;;29.30;92.60;29.20;99746.00;;;;338576;28;90357;-89
2023/08/22 00:43:54;;;;;;;;;;;29.30;92.40;29.10;99751.00;;;;339237;28;83491;-89
2023/08/22 00:44:06;;;;;;;;;;;29.30;92.40;29.10;99750.00;;;;338910;28;91365;-89
2023/08/22 00:44:19;;;;;;;;;;;29.30;92.60;29.20;99755.00;;;;335412;29;82561;-89
2023/08/22 00:44:30;;;;;;;;;;;29.30;92.60;29.10;99759.00;;;;336353;28;90291;-89
2023/08/22 00:44:42;;;;;;;;;;;29.30;92.60;29.10;99752.00;;;;338368;28;82548;-89
2023/08/22 00:44:54;;;;;;;;;;;29.30;92.60;29.20;99766.00;;;;340099;28;90475;-89
2023/08/22 00:45:07;;;;;;;;;;;29.30;92.50;29.20;99757.00;;;;337837;28;82595;-89
2023/08/22 00:45:18;;;;;;;;;;;29.30;92.40;29.20;99755.00;;;;337411;28;90622;-89
2023/08/22 00:45:30;;;;;;;;;;;29.30;92.30;29.20;99755.00;;;;338062;28;82543;-89
2023/08/22 00:45:42;;;;;;;;;;;29.30;92.30;29.20;99761.00;;;;338983;28;91455;-89
2023/08/22 00:45:54;;;;;;;;;;;29.30;92.30;29.20;99754.00;;;;335425;29;82562;-89
2023/08/22 00:46:06;;;;;;;;;;;29.30;92.30;29.20;99758.00;;;;337779;28;89219;-89
2023/08/22 00:46:20;;;;;;;;;;;29.30;92.30;29.20;99746.00;;;;338095;28;83564;-89
2023/08/22 00:46:32;;;;;;;;;;;29.30;92.40;29.20;99754.00;;;;336252;28;88200;-89
2023/08/22 00:46:44;;;;;;;;;;;29.30;92.60;29.10;99752.00;;;;338012;28;83429;-89
2023/08/22 00:46:56;;;;;;;;;;;29.30;92.60;29.10;99752.00;;;;337747;28;90474;-89
2023/08/22 00:47:07;;;;;;;;;;;29.20;92.50;29.10;99757.00;;;;336724;28;82580;-89
2023/08/22 00:47:19;;;;;;;;;;;29.20;92.40;29.10;99752.00;;;;336289;28;91593;-89
2023/08/22 00:47:31;;;;;;;;;;;29.20;92.40;29.10;99751.00;;;;337963;28;83479;-89
2023/08/22 00:47:43;;;;;;;;;;;29.20;92.60;29.20;99750.00;;;;340186;28;92302;-89
2023/08/22 00:47:55;;;;;;;;;;;29.20;92.40;29.20;99756.00;;;;340709;28;82540;-89
2023/08/22 00:48:07;;;;;;;;;;;29.20;92.60;29.20;99754.00;;;;338960;28;90187;-89
2023/08/22 00:48:19;;;;;;;;;;;29.20;92.50;29.20;99755.00;;;;338132;28;82545;-89
2023/08/22 00:48:30;;;;;;;;;;;29.30;92.60;29.10;99752.00;;;;337472;28;90981;-89
2023/08/22 00:48:42;;;;;;;;;;;29.20;92.40;29.10;99754.00;;;;340734;28;83413;-89
2023/08/22 00:48:54;;;;;;;;;;;29.20;92.50;29.10;99752.00;;;;338989;28;90556;-89
2023/08/22 00:49:08;;;;;;;;;;;29.20;92.70;29.10;99757.00;;;;338027;28;83448;-90
2023/08/22 00:49:20;;;;;;;;;;;29.20;92.50;29.20;99750.00;;;;336337;28;90192;-89
2023/08/22 00:49:32;;;;;;;;;;;29.20;92.40;29.20;99746.00;;;;340779;28;83354;-89
2023/08/22 00:49:43;;;;;;;;;;;29.20;92.40;29.20;99748.00;;;;340151;28;91233;-89
2023/08/22 00:49:55;;;;;;;;;;;29.20;92.50;29.10;99753.00;;;;338107;28;83320;-89
2023/08/22 00:50:08;;;;;;;;;;;29.20;92.70;29.10;99754.00;;;;336318;28;91359;-90
2023/08/22 00:50:20;;;;;;;;;;;29.20;92.80;29.10;99752.00;;;;339380;28;82557;-89
2023/08/22 00:50:32;;;;;;;;;;;29.20;92.70;29.30;99749.00;;;;337603;28;89254;-89
2023/08/22 00:50:44;;;;;;;;;;;29.20;92.60;29.20;99749.00;;;;336711;28;83429;-89
2023/08/22 00:50:56;;;;;;;;;;;29.20;92.70;29.10;99756.00;;;;339010;28;90582;-90
2023/08/22 00:51:08;;;;;;;;;;;29.20;92.70;29.00;99756.00;;;;339268;28;82533;-89
2023/08/22 00:51:19;;;;;;;;;;;29.20;92.80;29.00;99756.00;;;;338907;28;91570;-89
2023/08/22 00:51:31;;;;;;;;;;;29.20;92.90;29.00;99751.00;;;;339410;28;83341;-89
2023/08/22 00:51:43;;;;;;;;;;;29.20;92.90;28.90;99747.00;;;;337642;28;91474;-89
2023/08/22 00:51:56;;;;;;;;;;;29.20;92.90;29.00;99755.00;;;;339415;28;82572;-89
2023/08/22 00:52:08;;;;;;;;;;;29.20;92.90;29.00;99757.00;;;;340287;28;91285;-89
2023/08/22 00:52:20;;;;;;;;;;;29.20;92.90;29.00;99752.00;;;;339275;28;83448;-89
2023/08/22 00:52:31;;;;;;;;;;;29.20;92.90;28.90;99750.00;;;;337573;28;91436;-89
2023/08/22 00:52:43;;;;;;;;;;;29.20;92.90;28.90;99751.00;;;;337977;28;83499;-88
2023/08/22 00:52:56;;;;;;;;;;;29.20;92.90;28.90;99753.00;;;;340300;28;91623;-89
2023/08/22 00:53:07;;;;;;;;;;;29.20;92.90;29.00;99750.00;;;;338975;28;82497;-88
2023/08/22 00:53:19;;;;;;;;;;;29.20;92.80;29.00;99754.00;;;;337092;28;91703;-89
2023/08/22 00:53:32;;;;;;;;;;;29.20;92.70;28.90;99756.00;;;;336787;28;83335;-89
2023/08/22 00:53:44;;;;;;;;;;;29.10;92.80;28.90;99744.00;;;;337849;28;91154;-89
2023/08/22 00:53:56;;;;;;;;;;;29.20;93.00;28.90;99753.00;;;;339832;28;82741;-89
2023/08/22 00:54:08;;;;;;;;;;;29.10;93.00;28.90;99754.00;;;;338959;28;91848;-88
2023/08/22 00:54:19;;;;;;;;;;;29.20;92.90;28.90;99749.00;;;;336754;28;83436;-89
2023/08/22 00:54:31;;;;;;;;;;;29.10;92.90;28.90;99746.00;;;;335799;28;91341;-89
2023/08/22 00:54:43;;;;;;;;;;;29.10;93.00;28.90;99753.00;;;;339318;28;83471;-89
2023/08/22 00:54:55;;;;;;;;;;;29.10;93.00;29.00;99747.00;;;;337666;28;91540;-89
2023/08/22 00:55:07;;;;;;;;;;;29.10;92.90;29.00;99750.00;;;;336686;28;83464;-89
2023/08/22 00:55:19;;;;;;;;;;;29.10;92.80;28.90;99750.00;;;;338409;28;93033;-89
2023/08/22 00:55:32;;;;;;;;;;;29.10;93.10;28.90;99751.00;;;;340613;28;83510;-88
2023/08/22 00:55:43;;;;;;;;;;;29.10;92.80;29.00;99750.00;;;;338799;28;91406;-89
2023/08/22 00:55:55;;;;;;;;;;;29.20;92.90;29.10;99750.00;;;;335119;28;84381;-89
2023/08/22 00:56:07;;;;;;;;;;;29.10;92.70;29.00;99745.00;;;;337679;28;90519;-89
2023/08/22 00:56:19;;;;;;;;;;;29.10;92.70;29.00;99756.00;;;;337928;28;83402;-89
2023/08/22 00:56:31;;;;;;;;;;;29.10;92.60;28.90;99751.00;;;;338860;28;91966;-89
2023/08/22 00:56:42;;;;;;;;;;;29.10;92.80;28.90;99747.00;;;;339336;28;83363;-89
2023/08/22 00:56:54;;;;;;;;;;;29.10;92.90;28.90;99746.00;;;;337654;28;91581;-89
2023/08/22 00:57:06;;;;;;;;;;;29.20;93.00;28.90;99746.00;;;;339302;28;82495;-89
2023/08/22 00:57:19;;;;;;;;;;;29.10;93.00;28.90;99746.00;;;;340349;28;90348;-89
2023/08/22 00:57:30;;;;;;;;;;;29.10;92.90;29.00;99752.00;;;;338023;28;83347;-89
2023/08/22 00:57:42;;;;;;;;;;;29.10;92.80;29.00;99746.00;;;;336237;28;92414;-89
2023/08/22 00:57:55;;;;;;;;;;;29.10;92.80;29.00;99743.00;;;;336747;28;83558;-89
2023/08/22 00:58:07;;;;;;;;;;;29.10;92.80;29.00;99748.00;;;;339012;28;90468;-89
2023/08/22 00:58:18;;;;;;;;;;;29.10;92.70;29.10;99746.00;;;;337600;28;83629;-89
2023/08/22 00:58:31;;;;;;;;;;;29.10;92.70;29.00;99754.00;;;;336973;28;91431;-89
2023/08/22 00:58:43;;;;;;;;;;;29.10;92.80;29.00;99747.00;;;;337328;28;83414;-89
2023/08/22 00:58:54;;;;;;;;;;;29.10;93.00;29.00;99748.00;;;;336209;28;91603;-89
2023/08/22 00:59:06;;;;;;;;;;;29.10;92.80;29.00;99744.00;;;;335913;28;82522;-89
2023/08/22 00:59:18;;;;;;;;;;;29.10;93.00;28.90;99746.00;;;;333241;29;91507;-89
2023/08/22 00:59:30;;;;;;;;;;;29.10;93.00;28.90;99749.00;;;;337470;28;83560;-90
2023/08/22 00:59:42;;;;;;;;;;;29.10;93.00;28.90;99743.00;;;;335926;28;91553;-89
2023/08/22 00:59:54;;;;;;;;;;;29.10;93.10;28.90;99745.00;;;;337365;28;82610;-89
2023/08/22 01:00:10;;;;;;;;;;;29.10;93.10;28.90;99741.00;;;;338940;28;90223;-89
2023/08/22 01:00:22;;;;;;;;;;;29.10;93.10;28.90;99742.00;;;;337747;28;85265;-89
2023/08/22 01:00:34;;;;;;;;;;;29.10;93.20;28.90;99746.00;;;;336409;28;91743;-89
2023/08/22 01:00:46;;;;;;;;;;;29.10;93.10;28.80;99748.00;;;;338028;28;83417;-89
2023/08/22 01:00:59;;;;;;;;;;;29.10;93.10;28.80;99746.00;;;;337243;28;89558;-89
2023/08/22 01:01:10;;;;;;;;;;;29.10;93.10;28.90;99749.00;;;;336600;28;82655;-89
2023/08/22 01:01:23;;;;;;;;;;;29.10;93.10;28.90;99743.00;;;;335576;28;91684;-89
2023/08/22 01:01:34;;;;;;;;;;;29.10;93.00;28.90;99745.00;;;;337048;28;82637;-89
2023/08/22 01:01:46;;;;;;;;;;;29.10;93.00;28.90;99747.00;;;;336120;28;92247;-89
2023/08/22 01:01:58;;;;;;;;;;;29.10;93.10;28.90;99748.00;;;;338062;28;83445;-89